Flight Track Log - Related Links

Times and Time Zones

All times are in EDT time to prevent confusion due to time zone crossing. See the MTN7303 flight status page for this flight to view local times or setup timezone preferences in your user account.

Time Position Orientation Groundspeed Altitude Reporting Facility
EDT Latitude Longitude Course Direction KTS MPH feet Rate Location/Type
Thu 11:17:51 PM 39.2000 -76.6833 30° Northeast 87 100 1,200  Level Potomac TRACON
Thu 11:18:51 PM 39.2333 -76.7000 339° North 94 108 2,100 800 Climbing Potomac TRACON
Thu 11:19:51 PM 39.2500 -76.6833 38° Northeast 122 140 2,800 800 Climbing Potomac TRACON
Thu 11:20:51 PM 39.2667 -76.6500 57° Northeast 122 140 3,700 818 Climbing Potomac TRACON
Thu 11:22:03 PM 39.3000 -76.6167 38° Northeast 121 139 4,600 591 Climbing Potomac TRACON
Thu 11:23:00 PM 39.4682 -76.3906 30° Northeast  Level FlightAware Approximate
Thu 11:23:03 PM 39.3167 -76.5833 57° Northeast 139 160 5,000  Level Potomac TRACON
Thu 11:23:57 PM 39.3500 -76.5333 49° Northeast 160 184 5,000  Level Potomac TRACON
Thu 11:25:03 PM 39.3833 -76.5000 38° Northeast 161 185 5,000  Level Potomac TRACON
Thu 11:26:03 PM 39.4167 -76.4500 49° Northeast 162 186 5,000  Level Potomac TRACON
Thu 11:27:03 PM 39.4333 -76.4167 57° Northeast 158 182 5,000  Level Potomac TRACON
Thu 11:27:51 PM 39.4667 -76.3667 49° Northeast 158 182 5,000  Level Potomac TRACON
Thu 11:28:57 PM 39.5000 -76.3333 38° Northeast 158 182 5,000  Level Potomac TRACON
Thu 11:29:57 PM 39.5167 -76.2833 67° East 158 182 5,000  Level Potomac TRACON
Thu 11:31:29 PM 39.5667 -76.2167 46° Northeast 159 183 5,000  Level Philadelphia TRACON
Thu 11:32:05 PM 39.5833 -76.1833 57° Northeast 159 183 5,000  Level Philadelphia TRACON
Thu 11:33:05 PM 39.6167 -76.1500 38° Northeast 157 181 5,000  Level Philadelphia TRACON
Thu 11:34:05 PM 39.6333 -76.1000 67° East 158 182 5,000  Level Philadelphia TRACON
Thu 11:35:23 PM 39.6833 -76.0500 38° Northeast 160 184 5,000  Level Philadelphia TRACON
Thu 11:36:17 PM 39.7000 -76.0000 67° East 157 181 5,000  Level Philadelphia TRACON
Thu 11:37:11 PM 39.7333 -75.9667 38° Northeast 157 181 5,000  Level Philadelphia TRACON
Thu 11:38:05 PM 39.7500 -75.9333 57° Northeast 158 182 5,000  Level Philadelphia TRACON
Thu 11:38:59 PM 39.7833 -75.8833 49° Northeast 161 185 5,000  Level Philadelphia TRACON
Thu 11:39:59 PM 39.8000 -75.8500 57° Northeast 161 185 5,000  Level Philadelphia TRACON
Thu 11:40:59 PM 39.8333 -75.8000 49° Northeast 165 190 5,000  Level Philadelphia TRACON
Thu 11:42:05 PM 39.8667 -75.7500 49° Northeast 166 191 5,000  Level Philadelphia TRACON
Thu 11:43:11 PM 39.9000 -75.7000 49° Northeast 167 192 5,000  Level Philadelphia TRACON
Thu 11:44:11 PM 39.9333 -75.6500 49° Northeast 165 190 5,000  Level Philadelphia TRACON
Thu 11:45:17 PM 39.9500 -75.6000 66° East 164 189 5,000  Level Philadelphia TRACON
Thu 11:46:11 PM 39.9833 -75.5500 49° Northeast 165 190 5,000  Level Philadelphia TRACON
Thu 11:47:11 PM 40.0000 -75.5000 66° East 165 190 5,000  Level Philadelphia TRACON
Thu 11:48:23 PM 40.0167 -75.4333 72° East 164 189 5,000  Level Philadelphia TRACON
Thu 11:49:17 PM 40.0500 -75.3833 49° Northeast 165 190 5,000  Level Philadelphia TRACON
Thu 11:50:17 PM 40.0667 -75.3333 66° East 162 186 5,000  Level Philadelphia TRACON
Thu 11:51:17 PM 40.0833 -75.2833 66° East 163 188 5,000  Level Philadelphia TRACON
Thu 11:52:23 PM 40.1167 -75.2333 49° Northeast 163 188 5,000  Level Philadelphia TRACON
Thu 11:53:05 PM 40.1333 -75.2000 57° Northeast 167 192 5,000  Level Philadelphia TRACON
Thu 11:54:05 PM 40.1500 -75.1333 72° East 168 193 5,000  Level Philadelphia TRACON
Thu 11:55:05 PM 40.1833 -75.0833 49° Northeast 171 197 5,000  Level Philadelphia TRACON
Thu 11:56:05 PM 40.2000 -75.0333 66° East 167 192 5,000  Level Philadelphia TRACON
Thu 11:56:36 PM 40.2167 -75.0000 57° Northeast 167 192 5,000  Level New York TRACON
Thu 11:57:30 PM 40.2333 -74.9500 66° East 164 189 5,000  Level New York TRACON
Thu 11:58:30 PM 40.2500 -74.9000 66° East 162 186 5,000  Level New York TRACON
Thu 11:59:30 PM 40.2833 -74.8667 37° Northeast 158 182 5,000  Level New York TRACON
Fri 12:00:36 AM 40.3167 -74.8167 49° Northeast 157 181 5,000  Level New York TRACON
Fri 12:01:30 AM 40.3500 -74.7833 37° Northeast 157 181 5,000  Level New York TRACON
Fri 12:02:36 AM 40.3833 -74.7333 49° Northeast 157 181 5,000 -143 Level New York TRACON
Fri 12:03:36 AM 40.4000 -74.7000 57° Northeast 166 191 4,700 -316 Descending New York TRACON
Fri 12:04:30 AM 40.4333 -74.6500 49° Northeast 169 194 4,400 -316 Descending New York TRACON
Fri 12:05:30 AM 40.4667 -74.6000 49° Northeast 168 193 4,100 -200 Descending New York TRACON
Fri 12:06:30 AM 40.5000 -74.5500 49° Northeast 160 184 4,000 -323 Descending New York TRACON
Fri 12:08:36 AM 40.5500 -74.4500 57° Northeast 176 203 3,100 -333 Descending New York TRACON
Fri 12:09:30 AM 40.5833 -74.4167 37° Northeast 162 186 3,000 -50 Descending New York TRACON
Fri 12:10:36 AM 40.6167 -74.3667 49° Northeast 158 182 3,000 -410 Level New York TRACON
Fri 12:12:00 AM 40.6438 -74.2961 57° Northeast  Level Estimated
Fri 12:13:24 AM 40.6833 -74.2333 57° Northeast 172 198 1,400  Level New York TRACON
Fri 12:15:00 AM 40.6833 -74.1667 52° Northeast  Level FlightAware Approximate
Fri 12:22:00 AM 40.6925 -74.1687 52° Northeast  Level Estimated
Fri 12:23:00 AM 40.6925 -74.1687 52° Northeast  Level Estimated

Login

Don't have an account? Register now (free) for customized features, flight alerts, and more!